Time;durP1;ratioP1;P1;durP2;ratioP2;P2;SDS_P1;SDS_P2;PMS_P1;PMS_P2;Temp;Humidity;BMP_temperature;BMP_pressure;BME280_temperature;BME280_humidity;BME280_pressure;Samples;Min_cycle;Max_cycle;Signal;HPM_P1;HPM_P2
2021/12/04 00:01:22;;;;;;;111.03;47.98;;;;;;;-4.71;71.21;94257.65;1721171;82;21010;-59
2021/12/04 00:03:47;;;;;;;144.13;64.47;;;;;;;-4.69;71.09;94258.84;1733241;82;21459;-57
2021/12/04 00:06:26;;;;;;;165.90;73.57;;;;;;;-4.84;70.84;94259.00;1719847;82;21042;-59
2021/12/04 00:08:55;;;;;;;156.63;65.97;;;;;;;-4.95;70.93;94252.73;1687136;81;20998;-59
2021/12/04 00:11:20;;;;;;;148.53;64.12;;;;;;;-5.03;71.06;94249.72;1695513;82;21879;-58
2021/12/04 00:13:47;;;;;;;155.85;66.45;;;;;;;-5.04;71.06;94254.87;1713071;82;20999;-58
2021/12/04 00:16:14;;;;;;;158.25;66.65;;;;;;;-5.10;70.90;94250.97;1730745;82;21514;-57
2021/12/04 00:18:40;;;;;;;163.62;71.33;;;;;;;-5.13;70.97;94247.09;1724150;81;21022;-58
2021/12/04 00:21:07;;;;;;;160.45;72.17;;;;;;;-5.16;70.97;94249.73;1694428;84;21042;-59
2021/12/04 00:23:36;;;;;;;155.75;62.80;;;;;;;-5.19;71.01;94256.58;1694738;83;21157;-57
2021/12/04 00:26:04;;;;;;;185.55;80.97;;;;;;;-5.24;70.76;94262.26;1694525;84;20979;-59
2021/12/04 00:28:31;;;;;;;165.95;70.75;;;;;;;-5.33;70.67;94258.28;1675509;85;21007;-58
2021/12/04 00:30:59;;;;;;;181.02;79.07;;;;;;;-5.46;70.55;94256.91;1654615;85;21043;-56
2021/12/04 00:33:31;;;;;;;197.17;82.17;;;;;;;-5.59;70.25;94258.22;1639518;85;21597;-59
2021/12/04 00:36:03;;;;;;;186.55;78.22;;;;;;;-5.72;70.42;94257.42;1733842;82;21176;-59
2021/12/04 00:49:16;;;;;;;173.28;67.15;;;;;;;-6.08;70.92;94260.08;1719983;82;21822;-59
2021/12/04 00:51:43;;;;;;;163.60;69.47;;;;;;;-5.97;70.80;94254.91;1724709;81;21557;-58
2021/12/04 00:54:10;;;;;;;;;;;;;;;-5.85;71.08;94257.41;1722025;82;21434;-59
2021/12/04 00:56:39;;;;;;;163.60;69.67;;;;;;;-5.70;70.67;94259.96;1722711;82;20179;-57
2021/12/04 00:59:05;;;;;;;171.37;72.67;;;;;;;-5.68;69.96;94261.72;1693519;84;21073;-58
2021/12/04 01:01:32;;;;;;;176.50;74.75;;;;;;;-5.77;69.55;94259.82;1656524;85;21243;-58
2021/12/04 01:03:59;;;;;;;171.45;75.10;;;;;;;-5.87;69.94;94249.74;1655478;85;21110;-56
2021/12/04 01:06:26;;;;;;;139.65;61.70;;;;;;;-5.78;70.40;94255.59;1633459;85;21589;-57
2021/12/04 01:08:53;;;;;;;151.20;62.13;;;;;;;-5.68;70.01;94246.20;1635916;85;21078;-58
2021/12/04 01:11:20;;;;;;;135.48;57.88;;;;;;;-5.66;69.97;94239.91;1633744;86;21082;-57
2021/12/04 01:13:46;;;;;;;174.12;75.00;;;;;;;-5.70;69.49;94247.13;1625113;86;21633;-58
2021/12/04 01:16:14;;;;;;;173.80;76.30;;;;;;;-5.93;69.50;94251.15;1655883;85;21100;-57
2021/12/04 01:18:43;;;;;;;166.80;71.72;;;;;;;-6.01;69.83;94258.09;1652613;85;21097;-57
2021/12/04 01:21:11;;;;;;;184.87;80.57;;;;;;;-5.99;70.01;94255.84;1651585;85;21382;-58
2021/12/04 01:23:38;;;;;;;154.90;65.55;;;;;;;-5.97;70.42;94261.61;1722233;82;21067;-58
2021/12/04 01:26:05;;;;;;;170.75;75.92;;;;;;;-5.92;70.09;94263.43;1699565;82;21164;-58
2021/12/04 01:28:32;;;;;;;158.82;68.35;;;;;;;-6.01;70.12;94254.84;1732270;82;20944;-58
2021/12/04 01:30:59;;;;;;;154.80;65.80;;;;;;;-6.08;70.31;94257.40;1734740;82;21456;-58
2021/12/04 01:33:26;;;;;;;145.25;64.37;;;;;;;-6.11;70.42;94251.97;1712293;82;21011;-60
2021/12/04 01:35:52;;;;;;;120.62;52.85;;;;;;;-6.08;70.54;94245.91;1733445;82;21003;-58
2021/12/04 01:38:19;;;;;;;119.30;49.85;;;;;;;-6.01;70.71;94246.81;1715974;82;21150;-58
2021/12/04 01:40:46;;;;;;;110.45;48.78;;;;;;;-5.95;70.44;94242.70;1721164;81;20958;-60
2021/12/04 01:43:12;;;;;;;124.35;53.23;;;;;;;-5.95;70.30;94231.99;1733957;82;21003;-58
2021/12/04 01:45:39;;;;;;;119.22;50.70;;;;;;;-5.96;70.20;94235.80;1726449;82;20998;-58
2021/12/04 01:48:06;;;;;;;108.17;49.80;;;;;;;-6.02;70.10;94237.23;1712972;82;21068;-56
2021/12/04 01:50:33;;;;;;;126.80;55.20;;;;;;;-6.07;69.93;94239.42;1716077;82;21926;-58
2021/12/04 01:53:01;;;;;;;129.40;55.43;;;;;;;-6.20;69.57;94238.81;1705683;82;20959;-57
2021/12/04 01:55:30;;;;;;;108.25;46.80;;;;;;;-6.31;69.34;94233.81;1724647;82;21094;-58
2021/12/04 01:57:57;;;;;;;127.55;56.90;;;;;;;-6.41;68.79;94236.29;1723950;81;20998;-58
2021/12/04 02:00:24;;;;;;;105.40;44.85;;;;;;;-6.64;68.94;94237.58;1728528;81;21088;-58
2021/12/04 02:02:52;;;;;;;113.55;46.88;;;;;;;-6.80;68.95;94238.20;1725389;82;21108;-58
2021/12/04 02:05:19;;;;;;;112.57;45.25;;;;;;;-6.93;69.26;94238.11;1693227;81;21058;-57
2021/12/04 02:07:46;;;;;;;109.05;46.15;;;;;;;-6.94;69.50;94235.77;1676711;82;21140;-58
2021/12/04 02:10:13;;;;;;;107.63;46.42;;;;;;;-6.99;69.42;94225.37;1729846;82;20987;-58
2021/12/04 02:12:40;;;;;;;104.20;42.00;;;;;;;-7.05;69.58;94223.31;1693064;83;20996;-57
2021/12/04 02:15:13;;;;;;;116.57;47.90;;;;;;;-7.08;69.66;94229.36;1698493;84;21145;-57
2021/12/04 02:17:41;;;;;;;124.20;49.33;;;;;;;-7.11;69.78;94220.71;1669471;84;21431;-57
2021/12/04 02:20:11;;;;;;;131.20;54.55;;;;;;;-7.09;70.15;94229.15;1655235;85;21491;-58
2021/12/04 02:22:37;;;;;;;112.88;48.35;;;;;;;-7.03;70.06;94220.52;1718810;82;20996;-59
2021/12/04 02:25:08;;;;;;;125.05;49.20;;;;;;;-7.01;70.04;94216.17;1716937;82;20941;-58
2021/12/04 02:27:36;;;;;;;148.57;53.75;;;;;;;-7.01;69.98;94218.84;1723450;82;21154;-57
2021/12/04 02:30:06;;;;;;;131.57;51.08;;;;;;;-7.05;69.88;94214.75;1696254;84;20972;-58
2021/12/04 02:32:33;;;;;;;144.35;59.13;;;;;;;-7.08;69.88;94220.80;1689884;83;20979;-57
2021/12/04 02:35:00;;;;;;;143.20;55.67;;;;;;;-7.15;69.91;94222.54;1675154;85;21016;-58
2021/12/04 02:37:27;;;;;;;134.67;55.30;;;;;;;-7.19;69.81;94217.11;1677074;85;21027;-57
2021/12/04 02:40:00;;;;;;;131.12;55.10;;;;;;;-7.24;69.91;94225.95;1656253;85;21527;-58
2021/12/04 02:42:30;;;;;;;114.47;49.85;;;;;;;-7.29;69.80;94227.02;1727431;82;21019;-58
2021/12/04 02:45:01;;;;;;;90.92;41.63;;;;;;;-7.29;69.73;94224.89;1690016;84;21011;-58
2021/12/04 02:47:28;;;;;;;89.30;41.37;;;;;;;-7.31;69.41;94216.45;1658924;85;20975;-57
2021/12/04 02:49:55;;;;;;;77.25;36.00;;;;;;;-7.41;69.38;94218.31;1653398;85;21066;-57
2021/12/04 02:52:23;;;;;;;76.50;35.80;;;;;;;-7.51;69.33;94216.95;1677459;85;21039;-57
2021/12/04 02:54:52;;;;;;;83.15;36.98;;;;;;;-7.59;69.35;94213.12;1673098;84;21537;-58
2021/12/04 02:57:20;;;;;;;66.30;29.90;;;;;;;-7.64;69.26;94212.06;1663273;85;21062;-57
2021/12/04 02:59:47;;;;;;;82.57;38.17;;;;;;;-7.74;69.27;94221.38;1643333;85;21156;-58
2021/12/04 03:02:21;;;;;;;73.65;33.25;;;;;;;-7.85;69.58;94218.24;1723381;82;21589;-59
2021/12/04 03:04:47;;;;;;;77.97;37.63;;;;;;;-7.85;69.68;94226.25;1723902;82;21157;-57
2021/12/04 03:07:14;;;;;;;86.55;39.08;;;;;;;-7.80;69.74;94223.31;1734128;82;20971;-58
2021/12/04 03:09:40;;;;;;;93.72;40.92;;;;;;;-7.70;69.71;94222.23;1733629;82;21439;-57
2021/12/04 03:12:08;;;;;;;87.70;41.95;;;;;;;-7.60;69.66;94210.25;1721028;82;21011;-57
2021/12/04 03:14:36;;;;;;;183.65;71.15;;;;;;;-7.48;69.59;94214.16;1731183;82;20995;-58
2021/12/04 03:17:04;;;;;;;213.68;76.67;;;;;;;-7.36;69.26;94210.05;1698088;82;21147;-58
2021/12/04 03:19:31;;;;;;;111.17;45.65;;;;;;;-7.30;68.87;94205.98;1720050;82;20967;-57
2021/12/04 03:21:57;;;;;;;87.50;38.75;;;;;;;-7.32;68.74;94212.23;1719055;82;21121;-57
2021/12/04 03:24:25;;;;;;;114.30;50.73;;;;;;;-7.48;68.64;94199.47;1723459;82;21132;-57
2021/12/04 03:26:52;;;;;;;135.20;55.58;;;;;;;-7.66;69.21;94203.63;1724860;82;21024;-57
2021/12/04 03:29:23;;;;;;;99.00;43.48;;;;;;;-7.64;69.20;94204.84;1718069;82;21191;-58
2021/12/04 03:40:22;;;;;;;81.78;39.25;;;;;;;-7.83;68.93;94207.99;1696884;84;21008;-58
2021/12/04 03:42:40;;;;;;;85.07;37.23;;;;;;;-7.85;68.73;94208.90;1718402;82;22075;-58
2021/12/04 03:45:08;;;;;;;85.38;39.78;;;;;;;-7.89;68.83;94206.14;1705448;82;21069;-59
2021/12/04 03:47:40;;;;;;;87.42;35.98;;;;;;;-7.91;69.12;94206.28;1727408;82;21497;-59
2021/12/04 03:50:06;;;;;;;68.57;33.90;;;;;;;-7.86;69.26;94207.35;1727010;82;21099;-58
2021/12/04 03:52:36;;;;;;;85.57;38.88;;;;;;;-7.88;69.15;94196.25;1683092;84;20999;-58
2021/12/04 03:55:07;;;;;;;82.53;37.08;;;;;;;-7.98;69.16;94194.09;1694671;83;21194;-58
2021/12/04 03:57:34;;;;;;;58.42;28.25;;;;;;;-8.00;69.09;94191.00;1729127;81;21446;-59
2021/12/04 04:00:01;;;;;;;64.90;31.93;;;;;;;-8.05;69.03;94193.35;1701108;84;20996;-57
2021/12/04 04:02:28;;;;;;;64.42;29.27;;;;;;;-8.09;69.52;94183.16;1688273;84;21003;-58
2021/12/04 04:04:55;;;;;;;69.70;32.35;;;;;;;-8.01;69.28;94191.57;1676494;84;21118;-59
2021/12/04 04:07:22;;;;;;;60.90;29.87;;;;;;;-8.00;68.96;94194.45;1694254;84;21858;-59
2021/12/04 04:09:48;;;;;;;74.77;36.50;;;;;;;-8.01;69.07;94190.78;1677482;85;20995;-58
2021/12/04 04:12:15;;;;;;;72.62;35.10;;;;;;;-7.98;68.92;94198.09;1677469;85;20999;-58
2021/12/04 04:14:43;;;;;;;67.32;33.25;;;;;;;-7.99;68.78;94209.34;1704897;82;21530;-58
2021/12/04 04:17:10;;;;;;;78.70;36.08;;;;;;;-8.02;68.50;94203.36;1726606;82;21003;-57
2021/12/04 04:19:37;;;;;;;83.78;38.42;;;;;;;-8.06;68.61;94191.80;1690592;84;21554;-58
2021/12/04 04:22:05;;;;;;;67.32;33.28;;;;;;;-8.08;68.38;94190.63;1701211;83;21062;-57
2021/12/04 04:24:32;;;;;;;94.95;39.30;;;;;;;-8.15;68.28;94197.09;1660425;85;21510;-58
2021/12/04 04:26:59;;;;;;;132.45;50.05;;;;;;;-8.23;68.49;94195.41;1644174;85;21032;-58
2021/12/04 04:29:26;;;;;;;92.02;40.43;;;;;;;-8.23;68.72;94196.17;1651661;85;21703;-58
2021/12/04 04:31:54;;;;;;;82.30;36.70;;;;;;;-8.18;68.77;94203.15;1684299;82;21048;-58
2021/12/04 04:34:30;;;;;;;84.62;35.33;;;;;;;-8.14;68.78;94197.31;1714491;81;21053;-58
2021/12/04 04:37:07;;;;;;;78.35;36.35;;;;;;;-8.15;68.75;94198.43;1722214;82;21037;-59
2021/12/04 04:59:10;;;;;;;109.17;50.67;;;;;;;-8.48;68.06;94193.98;1693134;81;23109;-58
2021/12/04 05:12:28;;;;;;;77.75;35.17;;;;;;;-8.38;68.82;94210.83;1734851;82;21830;-58
2021/12/04 05:15:00;;;;;;;108.63;45.50;;;;;;;-8.52;68.15;94199.24;1721492;82;21207;-60
2021/12/04 05:17:54;;;;;;;105.15;47.90;;;;;;;-8.70;68.39;94203.11;1717929;82;22114;-58
2021/12/04 05:20:14;;;;;;;101.10;44.73;;;;;;;-8.71;68.55;94186.91;1730953;82;20959;-57
2021/12/04 05:22:39;;;;;;;113.80;49.48;;;;;;;-8.69;68.59;94190.77;1725407;82;20995;-58
2021/12/04 05:25:08;;;;;;;102.27;45.78;;;;;;;-8.64;68.57;94195.87;1719399;82;21161;-57
2021/12/04 05:27:35;;;;;;;81.50;34.48;;;;;;;-8.52;68.61;94197.12;1725767;82;21565;-58
2021/12/04 05:30:04;;;;;;;90.38;41.30;;;;;;;-8.46;68.24;94193.87;1690381;82;21652;-58
2021/12/04 05:32:31;;;;;;;100.87;46.37;;;;;;;-8.57;68.28;94196.84;1716306;82;21590;-57
2021/12/04 05:34:58;;;;;;;103.70;52.65;;;;;;;-8.65;68.06;94201.74;1706202;82;21525;-58
2021/12/04 05:37:25;;;;;;;112.85;49.90;;;;;;;-8.72;67.96;94204.77;1691069;84;21796;-60
2021/12/04 05:39:51;;;;;;;106.40;49.73;;;;;;;-8.72;68.02;94204.77;1696107;83;21457;-58
2021/12/04 05:42:18;;;;;;;103.90;51.50;;;;;;;-8.78;67.62;94202.14;1657205;85;21018;-59
2021/12/04 05:44:45;;;;;;;132.22;65.90;;;;;;;-8.83;67.65;94198.94;1730545;82;21022;-59
2021/12/04 05:50:11;;;;;;;159.40;73.40;;;;;;;-8.89;67.60;94202.39;1725885;82;21915;-57
2021/12/04 05:55:13;;;;;;;118.93;57.00;;;;;;;-8.94;68.06;94199.98;1673015;84;21485;-58
2021/12/04 05:57:40;;;;;;;129.82;59.88;;;;;;;-8.82;68.74;94195.95;1700692;81;21014;-58
2021/12/04 06:00:12;;;;;;;136.40;59.15;;;;;;;-8.61;68.49;94187.95;1732298;82;21066;-58
2021/12/04 06:02:40;;;;;;;124.15;58.55;;;;;;;-8.49;68.18;94197.77;1736218;82;21162;-58
2021/12/04 06:05:09;;;;;;;162.12;72.87;;;;;;;-8.45;68.18;94188.75;1724148;81;20995;-57
2021/12/04 06:07:35;;;;;;;128.80;64.32;;;;;;;-8.55;67.44;94187.94;1686600;83;21078;-58
2021/12/04 06:10:03;;;;;;;154.85;69.53;;;;;;;-8.65;67.46;94194.32;1691519;84;20975;-57
2021/12/04 06:12:30;;;;;;;164.77;76.30;;;;;;;-8.75;67.35;94184.14;1664762;85;21498;-57
2021/12/04 06:14:58;;;;;;;161.05;78.85;;;;;;;-8.78;67.38;94182.16;1619399;86;21567;-59
2021/12/04 06:17:25;;;;;;;175.78;80.87;;;;;;;-8.83;67.14;94170.97;1673161;85;21120;-58
2021/12/04 06:22:43;;;;;;;211.15;89.80;;;;;;;-8.81;67.25;94182.05;1663801;85;21026;-59
2021/12/04 06:25:16;;;;;;;203.07;86.40;;;;;;;-8.79;67.41;94192.60;1654738;85;21072;-58
2021/12/04 06:27:43;;;;;;;314.55;107.47;;;;;;;-8.74;67.43;94176.94;1671201;85;21180;-58
2021/12/04 06:30:13;;;;;;;379.13;126.25;;;;;;;-8.67;67.38;94177.33;1647728;85;21129;-59
2021/12/04 06:32:41;;;;;;;324.37;113.25;;;;;;;-8.61;67.38;94180.52;1652811;85;20986;-58
2021/12/04 06:35:10;;;;;;;307.92;120.85;;;;;;;-8.58;67.22;94173.94;1638906;85;21090;-58
2021/12/04 06:37:37;;;;;;;259.18;112.37;;;;;;;-8.58;67.11;94178.50;1681496;84;21019;-58
2021/12/04 06:40:06;;;;;;;273.57;115.55;;;;;;;-8.56;67.07;94173.06;1655886;85;21159;-57
2021/12/04 06:42:33;;;;;;;275.68;114.15;;;;;;;-8.60;66.71;94169.50;1706042;82;21636;-59
2021/12/04 06:45:01;;;;;;;323.57;131.93;;;;;;;-8.61;67.15;94167.20;1734641;82;20971;-59
2021/12/04 06:47:30;;;;;;;344.30;139.35;;;;;;;-8.60;66.53;94172.17;1693415;83;21025;-60
2021/12/04 06:50:03;;;;;;;288.78;119.20;;;;;;;-8.61;66.55;94173.29;1688706;83;21067;-59
2021/12/04 06:52:28;;;;;;;298.55;121.70;;;;;;;-8.56;66.25;94166.40;1651973;85;21182;-58
2021/12/04 06:54:57;;;;;;;306.20;125.35;;;;;;;-8.48;66.48;94172.11;1719319;81;21053;-59
2021/12/04 06:57:24;;;;;;;299.55;136.92;;;;;;;-8.31;66.68;94159.00;1638725;82;21561;-59
2021/12/04 06:59:53;;;;;;;294.55;124.72;;;;;;;-8.10;67.08;94160.85;1728156;82;20951;-59
2021/12/04 07:02:20;;;;;;;238.15;105.78;;;;;;;-7.85;66.99;94156.86;1719420;81;20977;-58
2021/12/04 07:04:46;;;;;;;243.95;112.52;;;;;;;-7.69;66.61;94154.95;1705236;82;21821;-59
2021/12/04 07:07:13;;;;;;;245.82;107.47;;;;;;;-7.64;66.33;94148.00;1728877;82;21440;-60
2021/12/04 07:09:41;;;;;;;181.00;80.22;;;;;;;-7.65;66.08;94146.45;1665913;84;20998;-61
2021/12/04 07:12:10;;;;;;;227.25;110.65;;;;;;;-7.62;65.41;94143.08;1726815;82;21038;-58
2021/12/04 07:14:37;;;;;;;183.62;84.30;;;;;;;-7.67;65.16;94140.69;1720682;82;21034;-60
2021/12/04 07:17:05;;;;;;;248.30;111.47;;;;;;;-7.64;65.30;94142.66;1690304;83;21156;-58
2021/12/04 07:19:32;;;;;;;270.40;122.20;;;;;;;-7.63;65.59;94135.66;1734578;82;20976;-59
2021/12/04 07:21:59;;;;;;;302.77;131.95;;;;;;;-7.54;65.98;94141.55;1670017;82;21074;-60
2021/12/04 07:24:26;;;;;;;266.85;126.87;;;;;;;-7.37;66.10;94143.08;1698392;82;21152;-59
2021/12/04 07:26:53;;;;;;;215.10;98.82;;;;;;;-7.08;66.39;94139.84;1677633;82;21038;-59
2021/12/04 07:29:20;;;;;;;187.47;89.32;;;;;;;-6.87;65.92;94135.13;1735906;82;21083;-58
2021/12/04 07:31:46;;;;;;;285.55;140.55;;;;;;;-6.85;65.88;94134.79;1727737;82;21058;-59
2021/12/04 07:34:14;;;;;;;275.25;138.60;;;;;;;-6.85;66.13;94120.84;1724247;82;21010;-59
2021/12/04 07:36:40;;;;;;;242.25;122.02;;;;;;;-6.71;66.31;94119.02;1687735;83;21526;-60
2021/12/04 07:39:08;;;;;;;241.38;114.55;;;;;;;-6.55;65.42;94113.77;1649030;85;21244;-62
2021/12/04 07:41:38;;;;;;;273.35;130.20;;;;;;;-6.50;65.06;94112.14;1659340;85;21343;-59
2021/12/04 07:44:03;;;;;;;227.55;107.37;;;;;;;-6.51;64.64;94118.61;1658091;85;21092;-59
2021/12/04 07:46:30;;;;;;;258.17;125.80;;;;;;;-6.62;64.82;94115.55;1723726;82;21464;-59
2021/12/04 07:48:57;;;;;;;210.90;110.97;;;;;;;-6.69;65.12;94112.75;1732944;82;21546;-59
2021/12/04 07:51:23;;;;;;;231.13;117.17;;;;;;;-6.60;64.87;94117.30;1697067;83;21463;-59
2021/12/04 07:53:50;;;;;;;256.10;122.67;;;;;;;-6.50;64.79;94115.39;1657996;85;21163;-61
2021/12/04 07:56:17;;;;;;;210.55;108.57;;;;;;;-6.38;64.82;94105.28;1652016;85;21102;-61
2021/12/04 07:58:45;;;;;;;225.28;112.08;;;;;;;-6.20;64.87;94114.38;1658418;84;21073;-60
2021/12/04 08:01:12;;;;;;;132.95;70.67;;;;;;;-6.12;64.84;94110.68;1629706;85;21597;-59
2021/12/04 08:03:38;;;;;;;121.02;63.05;;;;;;;-6.01;65.04;94104.19;1623758;86;21095;-59
2021/12/04 08:06:05;;;;;;;123.75;64.50;;;;;;;-5.79;65.08;94107.39;1622409;86;21156;-59
2021/12/04 08:08:32;;;;;;;109.97;59.03;;;;;;;-5.67;65.07;94111.94;1608222;86;21105;-59
2021/12/04 08:10:59;;;;;;;143.68;77.32;;;;;;;-5.56;64.93;94108.07;1628946;86;21025;-60
2021/12/04 08:13:26;;;;;;;105.92;56.00;;;;;;;-5.47;65.03;94099.19;1627574;87;21508;-60
2021/12/04 08:15:54;;;;;;;118.30;61.33;;;;;;;-5.31;64.92;94087.94;1680312;84;21030;-58
2021/12/04 08:18:21;;;;;;;85.30;47.00;;;;;;;-5.18;64.94;94079.88;1613006;87;21125;-61
2021/12/04 08:20:48;;;;;;;80.65;45.90;;;;;;;-4.97;64.82;94075.35;1617430;85;21549;-59
2021/12/04 08:23:15;;;;;;;97.62;55.90;;;;;;;-4.84;64.64;94074.73;1677976;84;21038;-58
2021/12/04 08:25:42;;;;;;;139.80;76.37;;;;;;;-4.78;64.89;94069.82;1678832;85;21011;-59
2021/12/04 08:28:09;;;;;;;99.25;59.33;;;;;;;-4.58;64.92;94071.17;1687963;84;21018;-60
2021/12/04 08:30:39;;;;;;;135.85;74.87;;;;;;;-4.45;64.61;94065.75;1706899;83;21170;-59
2021/12/04 08:33:04;;;;;;;103.85;54.20;;;;;;;-4.47;64.55;94063.98;1690679;83;20975;-61
2021/12/04 08:35:35;;;;;;;133.12;65.83;;;;;;;-4.43;64.48;94063.47;1703877;83;21006;-58
2021/12/04 08:37:59;;;;;;;107.43;55.43;;;;;;;-4.39;64.29;94052.94;1703319;83;21038;-60
2021/12/04 08:40:27;;;;;;;79.72;42.45;;;;;;;-4.37;64.20;94051.25;1702982;83;21253;-59
2021/12/04 08:42:54;;;;;;;97.75;52.83;;;;;;;-4.25;64.36;94055.00;1704257;83;21131;-61
2021/12/04 08:45:20;;;;;;;134.87;65.92;;;;;;;-4.17;64.33;94046.64;1702785;83;21035;-60
2021/12/04 08:47:47;;;;;;;155.35;73.75;;;;;;;-4.04;64.57;94047.87;1702910;82;21081;-58
2021/12/04 08:50:21;;;;;;;97.17;56.23;;;;;;;-3.79;64.48;94045.38;1702798;83;21011;-60
2021/12/04 08:52:48;;;;;;;124.27;86.17;;;;;;;-3.62;64.71;94029.94;1705871;83;21085;-58
2021/12/04 08:55:14;;;;;;;78.22;45.65;;;;;;;-3.46;64.77;94031.95;1669864;83;21097;-59
2021/12/04 08:57:42;;;;;;;106.17;56.70;;;;;;;-3.28;64.70;94031.47;1705122;83;20964;-57
2021/12/04 09:00:13;;;;;;;123.20;63.85;;;;;;;-3.16;64.19;94025.77;1666165;83;21604;-60
2021/12/04 09:02:43;;;;;;;161.10;83.62;;;;;;;-3.08;63.07;94024.64;1702964;83;21447;-57
2021/12/04 09:05:11;;;;;;;160.18;82.57;;;;;;;-3.02;63.12;94027.73;1703914;83;20971;-60
2021/12/04 09:07:38;;;;;;;81.02;47.38;;;;;;;-2.79;63.12;94025.50;1700822;83;21127;-59
2021/12/04 09:10:06;;;;;;;83.80;44.85;;;;;;;-2.56;62.29;94025.93;1706583;83;21345;-60
2021/12/04 09:12:37;;;;;;;78.75;43.35;;;;;;;-2.28;61.50;94009.83;1703493;82;20991;-59
2021/12/04 09:15:07;;;;;;;71.40;38.33;;;;;;;-1.96;60.67;94014.05;1703428;83;20999;-59
2021/12/04 09:17:35;;;;;;;52.40;31.60;;;;;;;-1.74;59.75;94008.83;1704741;83;21218;-59
2021/12/04 09:20:04;;;;;;;69.50;43.17;;;;;;;-1.71;59.28;94008.08;1703240;83;21122;-58
2021/12/04 09:22:33;;;;;;;85.12;46.92;;;;;;;-1.71;59.52;94001.34;1703161;83;20943;-59
2021/12/04 09:24:59;;;;;;;84.55;48.58;;;;;;;-1.63;60.08;93992.07;1703407;83;21006;-59
2021/12/04 09:33:26;;;;;;;92.62;51.90;;;;;;;-1.15;59.66;93978.27;1687717;83;21220;-58
2021/12/04 09:59:15;;;;;;;85.83;49.15;;;;;;;-0.63;58.88;93957.73;1708215;84;21022;-59
2021/12/04 10:00:08;;;;;;;61.15;40.08;;;;;;;0.41;59.42;93915.53;1688866;83;21599;-59
2021/12/04 10:05:18;;;;;;;61.08;40.83;;;;;;;0.85;58.51;93900.53;1591791;88;21067;-60
2021/12/04 10:19:11;;;;;;;90.62;57.23;;;;;;;1.06;58.07;93885.36;1703519;84;21062;-60
2021/12/04 10:32:26;;;;;;;125.67;69.25;;;;;;;1.20;58.48;93871.63;1703778;83;28402;-59
2021/12/04 10:35:01;;;;;;;120.45;68.67;;;;;;;1.37;57.95;93867.89;1690426;83;21002;-59
2021/12/04 10:37:30;;;;;;;96.60;57.58;;;;;;;1.70;58.21;93860.80;1691657;83;21489;-59
2021/12/04 10:40:07;;;;;;;87.42;53.95;;;;;;;2.39;57.21;93867.69;1693442;83;21173;-59
2021/12/04 10:42:51;;;;;;;121.85;72.65;;;;;;;2.74;56.33;93866.23;1698457;83;21080;-60
2021/12/04 10:45:19;;;;;;;117.93;69.10;;;;;;;2.92;55.98;93858.48;1697014;83;21122;-62
2021/12/04 10:47:55;;;;;;;105.32;66.35;;;;;;;3.17;56.04;93847.84;1697254;83;21060;-58
2021/12/04 10:50:43;;;;;;;;;;;;;;;;;;;;;
2021/12/04 10:53:06;;;;;;;70.17;47.03;;;;;;;4.30;53.47;93830.51;1699864;83;22071;-59
2021/12/04 11:01:29;;;;;;;159.60;97.25;;;;;;;5.23;50.76;93822.79;1694995;83;20986;-59
2021/12/04 11:04:07;;;;;;;127.95;79.37;;;;;;;5.15;50.24;93806.47;1695402;83;21109;-61
2021/12/04 11:42:28;;;;;;;;;;;;;;;;;;;;;
2021/12/04 11:44:54;;;;;;;47.03;32.10;;;;;;;10.79;40.44;93772.05;1700114;84;21117;-59
2021/12/04 11:47:20;;;;;;;38.67;26.75;;;;;;;11.22;39.00;93775.48;1680130;84;22151;-59
2021/12/04 11:49:47;;;;;;;48.10;35.52;;;;;;;11.45;38.19;93766.36;1695198;83;21509;-58
2021/12/04 11:52:18;;;;;;;72.08;52.15;;;;;;;11.54;37.41;93761.36;1697524;83;21121;-58
2021/12/04 11:54:58;;;;;;;62.05;44.63;;;;;;;11.60;37.69;93750.61;1699371;83;20998;-58
2021/12/04 11:57:34;;;;;;;71.55;51.50;;;;;;;11.90;37.38;93747.17;1699277;83;21556;-60
2021/12/04 12:00:20;;;;;;;78.87;54.83;;;;;;;12.22;36.48;93746.86;1699410;83;21139;-58
2021/12/04 12:02:43;;;;;;;64.30;44.00;;;;;;;12.64;35.82;93743.00;1702895;83;21454;-59
2021/12/04 12:05:18;;;;;;;60.83;41.75;;;;;;;12.92;35.17;93739.33;1679034;84;20981;-59
2021/12/04 12:07:57;;;;;;;45.40;31.77;;;;;;;13.17;34.65;93736.45;1679554;82;22159;-58
2021/12/04 12:10:27;;;;;;;27.15;20.43;;;;;;;13.38;34.26;93740.66;1680555;84;21517;-59
2021/12/04 12:13:03;;;;;;;24.85;18.35;;;;;;;13.50;33.15;93743.66;1680400;83;21142;-58
2021/12/04 12:15:35;;;;;;;34.73;24.72;;;;;;;13.45;33.40;93737.47;1701915;83;20949;-59
2021/12/04 12:18:16;;;;;;;29.65;21.70;;;;;;;13.35;33.39;93731.97;1694434;83;20963;-60
2021/12/04 12:20:53;;;;;;;29.07;20.60;;;;;;;13.41;32.81;93730.03;1702014;82;20938;-62
2021/12/04 12:23:13;;;;;;;31.42;21.65;;;;;;;13.45;32.96;93723.66;1696162;83;21513;-59
2021/12/04 12:25:58;;;;;;;37.45;25.20;;;;;;;13.57;32.79;93716.95;1702826;83;21231;-59
2021/12/04 12:34:05;;;;;;;32.23;22.15;;;;;;;13.87;32.46;93703.75;1699821;82;21045;-60
2021/12/04 12:36:30;;;;;;;40.65;29.77;;;;;;;13.86;32.35;93702.23;1704130;83;21088;-58
2021/12/04 12:39:09;;;;;;;54.30;36.23;;;;;;;13.77;32.39;93707.17;1703556;82;21143;-57
2021/12/04 12:41:43;;;;;;;66.22;44.10;;;;;;;13.46;32.55;93697.55;1699111;82;21085;-59
2021/12/04 12:44:19;;;;;;;63.13;43.40;;;;;;;13.00;33.26;93691.34;1704103;83;20962;-59
2021/12/04 12:47:02;;;;;;;61.50;41.02;;;;;;;12.66;33.53;93688.85;1700589;84;21026;-60
2021/12/04 12:49:34;;;;;;;;;;;;;;;12.41;33.67;93688.81;1704244;83;21595;-59
2021/12/04 12:52:11;;;;;;;27.22;19.65;;;;;;;12.21;33.76;93693.56;1696589;83;21152;-63
2021/12/04 12:54:52;;;;;;;34.35;23.10;;;;;;;12.16;33.62;93704.69;1700036;83;21849;-58
2021/12/04 12:57:24;;;;;;;42.35;31.10;;;;;;;12.06;33.90;93692.90;1697457;83;21056;-60
2021/12/04 13:11:48;;;;;;;52.90;31.82;;;;;;;9.47;37.50;93689.42;1700657;83;21034;-59
2021/12/04 13:14:25;;;;;;;108.63;65.87;;;;;;;8.60;39.01;93688.80;1696475;84;21054;-58
2021/12/04 13:17:00;;;;;;;133.18;79.97;;;;;;;7.78;40.28;93683.77;1699260;83;21006;-59
2021/12/04 13:19:28;;;;;;;104.03;59.50;;;;;;;6.60;42.11;93678.36;1695511;83;21624;-59
2021/12/04 13:21:59;;;;;;;97.72;54.55;;;;;;;5.62;43.87;93681.25;1698164;83;21429;-62
2021/12/04 13:24:29;;;;;;;116.42;67.17;;;;;;;4.88;45.41;93678.64;1703025;82;20970;-59
2021/12/04 13:26:58;;;;;;;158.07;90.47;;;;;;;4.12;46.76;93681.12;1682612;83;21038;-60
2021/12/04 13:29:27;;;;;;;165.32;86.90;;;;;;;3.29;48.63;93675.98;1704657;82;20962;-59
2021/12/04 13:31:57;;;;;;;174.55;86.67;;;;;;;2.78;50.24;93678.20;1731927;82;21404;-59
2021/12/04 13:34:27;;;;;;;167.18;88.60;;;;;;;2.25;51.03;93675.33;1714321;82;21096;-60
2021/12/04 13:36:55;;;;;;;163.77;89.42;;;;;;;1.89;52.40;93675.10;1697482;82;21526;-61
2021/12/04 13:39:27;;;;;;;166.80;88.12;;;;;;;1.72;53.01;93681.64;1739946;82;21648;-61
2021/12/04 13:41:54;;;;;;;136.97;71.42;;;;;;;1.50;53.75;93680.52;1697730;82;20986;-61
2021/12/04 13:44:23;;;;;;;140.82;75.75;;;;;;;1.28;54.74;93688.10;1731713;82;21495;-58
2021/12/04 13:46:56;;;;;;;151.27;83.15;;;;;;;1.03;55.42;93672.28;1722292;81;21076;-57
2021/12/04 13:49:31;;;;;;;111.08;66.28;;;;;;;0.85;55.93;93666.39;1720582;82;20943;-58
2021/12/04 13:51:58;;;;;;;135.93;69.87;;;;;;;0.75;56.63;93679.50;1692790;83;21574;-59
2021/12/04 13:54:26;;;;;;;109.10;56.90;;;;;;;0.62;57.37;93670.41;1659766;84;21165;-58
2021/12/04 13:56:53;;;;;;;109.67;59.13;;;;;;;0.40;58.14;93670.56;1656994;84;21148;-59
2021/12/04 13:59:24;;;;;;;107.30;55.50;;;;;;;0.24;58.82;93667.70;1625563;85;21110;-58
2021/12/04 14:01:52;;;;;;;169.93;88.03;;;;;;;0.16;59.33;93677.66;1733939;82;20975;-59
2021/12/04 14:04:19;;;;;;;200.82;110.72;;;;;;;-0.02;60.04;93676.56;1693092;83;21129;-59
2021/12/04 14:06:55;;;;;;;206.02;106.43;;;;;;;-0.09;60.76;93675.11;1675854;84;21629;-58
2021/12/04 14:09:26;;;;;;;285.15;141.62;;;;;;;-0.10;61.15;93672.23;1690801;84;21158;-57
2021/12/04 14:11:53;;;;;;;299.55;138.50;;;;;;;-0.23;61.48;93667.20;1692605;83;20972;-59